Time;durP1;ratioP1;P1;durP2;ratioP2;P2;SDS_P1;SDS_P2;PMS_P1;PMS_P2;Temp;Humidity;BMP_temperature;BMP_pressure;BME280_temperature;BME280_humidity;BME280_pressure;Samples;Min_cycle;Max_cycle;Signal;HPM_P1;HPM_P2
2023/04/16 00:01:51;;;;;;;81.60;42.10;;;8.60;99.90;;;;;;6155102;23;20016;-83
2023/04/16 00:04:16;;;;;;;87.35;43.35;;;8.60;99.90;;;;;;6156031;23;20009;-84
2023/04/16 00:06:42;;;;;;;84.50;46.00;;;8.60;99.90;;;;;;6105347;23;20480;-85
2023/04/16 00:09:08;;;;;;;93.30;44.55;;;8.70;99.90;;;;;;6156066;23;20305;-84
2023/04/16 00:11:33;;;;;;;87.30;44.25;;;8.60;99.90;;;;;;6155705;23;20017;-84
2023/04/16 00:13:59;;;;;;;93.65;45.28;;;8.50;99.90;;;;;;6156132;23;20041;-83
2023/04/16 00:16:24;;;;;;;95.63;44.95;;;8.50;99.90;;;;;;6129305;23;20018;-84
2023/04/16 00:18:50;;;;;;;103.25;46.30;;;8.50;99.90;;;;;;6155443;23;20009;-85
2023/04/16 00:21:16;;;;;;;108.00;50.50;;;8.40;99.90;;;;;;6129981;23;20512;-85
2023/04/16 00:23:41;;;;;;;90.38;46.28;;;8.50;99.90;;;;;;6155939;23;20009;-84
2023/04/16 00:26:07;;;;;;;90.10;46.60;;;8.50;99.90;;;;;;6129016;23;20014;-84
2023/04/16 00:28:33;;;;;;;100.93;48.42;;;8.40;99.90;;;;;;6129059;23;20021;-84
2023/04/16 00:31:00;;;;;;;101.32;48.25;;;8.40;99.90;;;;;;6104394;23;20014;-84
2023/04/16 00:33:25;;;;;;;123.95;48.83;;;8.40;99.90;;;;;;6155757;23;20024;-84
2023/04/16 00:35:51;;;;;;;114.60;51.33;;;8.30;99.90;;;;;;6129362;23;20017;-83
2023/04/16 00:38:17;;;;;;;102.20;48.30;;;8.40;99.90;;;;;;6155179;23;20337;-84
2023/04/16 00:40:42;;;;;;;89.82;46.15;;;8.30;99.90;;;;;;6127379;23;20022;-84
2023/04/16 00:43:08;;;;;;;104.70;49.95;;;8.70;99.90;;;;;;6104900;23;20017;-84
2023/04/16 00:45:34;;;;;;;119.07;53.63;;;8.30;99.90;;;;;;6155062;23;20064;-84
2023/04/16 00:48:00;;;;;;;85.93;47.25;;;8.30;99.90;;;;;;6157123;23;20021;-84
2023/04/16 00:50:26;;;;;;;115.40;52.67;;;8.20;99.90;;;;;;6106492;23;20017;-84
2023/04/16 00:52:51;;;;;;;105.78;51.50;;;8.30;99.90;;;;;;6155648;23;20404;-85
2023/04/16 00:55:18;;;;;;;99.68;51.75;;;8.20;99.90;;;;;;6154509;23;20089;-85
2023/04/16 00:57:44;;;;;;;83.13;47.10;;;8.20;99.90;;;;;;6155707;23;20282;-84
2023/04/16 01:00:11;;;;;;;122.78;53.05;;;8.20;99.90;;;;;;6155279;23;20310;-85
2023/04/16 01:02:37;;;;;;;111.30;53.40;;;8.30;99.90;;;;;;6129215;23;20024;-85
2023/04/16 01:05:04;;;;;;;129.95;54.63;;;8.30;99.90;;;;;;6155126;23;20060;-84
2023/04/16 01:07:30;;;;;;;112.82;52.20;;;8.20;99.90;;;;;;6128829;23;20262;-84
2023/04/16 01:09:56;;;;;;;149.40;56.38;;;8.20;99.90;;;;;;6154464;23;20152;-83
2023/04/16 01:12:22;;;;;;;106.47;54.22;;;8.20;99.90;;;;;;6154410;23;20076;-83
2023/04/16 01:14:47;;;;;;;106.10;52.17;;;8.20;99.90;;;;;;6155803;23;20018;-84
2023/04/16 01:17:13;;;;;;;142.23;58.97;;;8.20;99.90;;;;;;6128945;23;20326;-84
2023/04/16 01:19:39;;;;;;;122.75;56.95;;;8.20;99.90;;;;;;6156235;23;20463;-85
2023/04/16 01:22:05;;;;;;;151.30;60.80;;;8.30;99.90;;;;;;6155653;23;20014;-84
2023/04/16 01:24:31;;;;;;;117.70;54.97;;;8.20;99.90;;;;;;6103980;23;20013;-85
2023/04/16 01:26:58;;;;;;;121.88;56.90;;;8.20;99.90;;;;;;6129664;23;20017;-85
2023/04/16 01:29:24;;;;;;;128.80;58.33;;;8.20;99.90;;;;;;6104677;23;20060;-84
2023/04/16 01:31:49;;;;;;;124.05;58.20;;;8.20;99.90;;;;;;6155487;23;20014;-85
2023/04/16 01:34:15;;;;;;;146.25;60.75;;;8.20;99.90;;;;;;6155852;23;20009;-85
2023/04/16 01:36:40;;;;;;;150.82;61.40;;;8.40;99.90;;;;;;6128968;23;20444;-83
2023/04/16 01:39:08;;;;;;;110.63;57.78;;;8.10;99.90;;;;;;6128796;23;20013;-84
2023/04/16 01:41:33;;;;;;;122.97;58.60;;;8.10;99.90;;;;;;6129192;23;20041;-85
2023/04/16 01:43:59;;;;;;;119.47;58.88;;;8.10;99.90;;;;;;6129911;23;20016;-84
2023/04/16 01:46:29;;;;;;;110.85;56.33;;;8.10;99.90;;;;;;6155533;23;20072;-85
2023/04/16 01:48:56;;;;;;;105.22;57.03;;;8.10;99.90;;;;;;6129802;23;20084;-84
2023/04/16 01:51:22;;;;;;;127.93;60.15;;;8.10;99.90;;;;;;6156308;23;20009;-84
2023/04/16 01:53:49;;;;;;;124.75;58.83;;;8.10;99.90;;;;;;6155643;23;20013;-84
2023/04/16 01:56:15;;;;;;;128.45;59.60;;;8.30;99.90;;;;;;6155131;23;20088;-85
2023/04/16 01:58:41;;;;;;;111.60;57.22;;;8.10;99.90;;;;;;6155295;23;20059;-84
2023/04/16 02:01:07;;;;;;;144.85;58.45;;;8.10;99.90;;;;;;6155398;23;20009;-84
2023/04/16 02:03:33;;;;;;;111.28;56.20;;;8.10;99.90;;;;;;6129339;23;20089;-84
2023/04/16 02:06:00;;;;;;;115.07;55.97;;;8.10;99.90;;;;;;6155443;23;20013;-83
2023/04/16 02:08:26;;;;;;;117.70;54.05;;;8.00;99.90;;;;;;6103999;23;20013;-85
2023/04/16 02:10:52;;;;;;;124.55;58.33;;;8.30;99.90;;;;;;6128858;23;20055;-84
2023/04/16 02:13:17;;;;;;;121.57;55.33;;;8.00;99.90;;;;;;6129411;23;20014;-85
2023/04/16 02:15:50;;;;;;;124.25;56.58;;;8.10;99.90;;;;;;6155031;23;20503;-84
2023/04/16 02:18:16;;;;;;;120.57;54.63;;;8.00;99.90;;;;;;6105237;23;20471;-84
2023/04/16 02:20:43;;;;;;;86.78;50.20;;;8.00;99.90;;;;;;6155357;23;20233;-84
2023/04/16 02:23:09;;;;;;;114.15;53.10;;;8.20;99.90;;;;;;6155123;23;20123;-84
2023/04/16 02:25:43;;;;;;;147.68;56.33;;;8.10;99.90;;;;;;6128902;23;20123;-85
2023/04/16 02:28:09;;;;;;;;;;;8.00;99.90;;;;;;6130268;23;20028;-84
2023/04/16 02:30:36;;;;;;;75.40;46.40;;;8.00;99.90;;;;;;6129112;23;19919;-84
2023/04/16 02:33:04;;;;;;;97.63;51.03;;;8.00;99.90;;;;;;6156078;23;20036;-84
2023/04/16 02:35:31;;;;;;;84.97;49.88;;;8.00;99.90;;;;;;6155976;23;20071;-84
2023/04/16 02:37:57;;;;;;;83.20;50.13;;;8.00;99.90;;;;;;6128908;23;20013;-85
2023/04/16 02:40:22;;;;;;;114.30;53.90;;;8.00;99.90;;;;;;6128565;23;20021;-84
2023/04/16 02:42:48;;;;;;;105.50;53.65;;;8.00;99.90;;;;;;6104224;23;20014;-84
2023/04/16 02:45:14;;;;;;;107.05;54.63;;;8.00;99.90;;;;;;6128206;23;20015;-84
2023/04/16 02:47:39;;;;;;;111.20;53.95;;;8.00;99.90;;;;;;6128169;23;20021;-84
2023/04/16 02:50:06;;;;;;;99.25;51.75;;;8.00;99.90;;;;;;6128705;23;20598;-84
2023/04/16 02:52:32;;;;;;;115.18;56.42;;;8.00;99.90;;;;;;6154195;23;20527;-83
2023/04/16 02:54:58;;;;;;;85.47;50.28;;;8.00;99.90;;;;;;6154592;23;20109;-84
2023/04/16 02:57:23;;;;;;;99.35;54.60;;;8.00;99.90;;;;;;6155195;23;20017;-85
2023/04/16 02:59:49;;;;;;;109.40;55.83;;;8.00;99.90;;;;;;6155124;23;20041;-85
2023/04/16 03:02:15;;;;;;;102.40;52.20;;;8.10;99.90;;;;;;6128301;23;20021;-84
2023/04/16 03:04:41;;;;;;;103.53;52.45;;;8.10;99.90;;;;;;6104336;23;20021;-83
2023/04/16 03:07:08;;;;;;;132.77;59.13;;;8.10;99.90;;;;;;6127949;23;20101;-84
2023/04/16 03:09:34;;;;;;;108.38;54.78;;;8.10;99.90;;;;;;6128487;23;20040;-85
2023/04/16 03:12:01;;;;;;;97.03;52.08;;;8.10;99.90;;;;;;6155044;23;20010;-84
2023/04/16 03:14:26;;;;;;;110.65;56.55;;;8.10;99.90;;;;;;6128587;23;20108;-84
2023/04/16 03:16:52;;;;;;;108.43;54.75;;;8.20;99.90;;;;;;6103891;23;20445;-84
2023/04/16 03:19:18;;;;;;;113.82;55.53;;;8.10;99.90;;;;;;6128459;23;20384;-83
2023/04/16 03:21:44;;;;;;;118.75;55.50;;;8.30;99.90;;;;;;6103575;23;20013;-84
2023/04/16 03:24:10;;;;;;;100.95;54.63;;;8.10;99.90;;;;;;6128937;23;20005;-84
2023/04/16 03:26:35;;;;;;;122.72;57.13;;;8.10;99.90;;;;;;6129445;23;20009;-84
2023/04/16 03:29:01;;;;;;;117.65;57.90;;;8.10;99.90;;;;;;6153971;23;20045;-84
2023/04/16 03:31:27;;;;;;;123.45;57.63;;;8.10;99.90;;;;;;6128603;23;20037;-84
2023/04/16 03:33:52;;;;;;;125.30;58.33;;;8.10;99.90;;;;;;6154995;23;20417;-85
2023/04/16 03:36:18;;;;;;;121.63;59.00;;;8.10;99.90;;;;;;6128798;23;20020;-84
2023/04/16 03:38:44;;;;;;;121.63;57.17;;;8.10;99.90;;;;;;6130175;23;20453;-85
2023/04/16 03:41:09;;;;;;;119.18;55.30;;;8.10;99.90;;;;;;6157251;23;20009;-85
2023/04/16 03:43:35;;;;;;;124.32;58.25;;;8.10;99.90;;;;;;6129946;23;20010;-85
2023/04/16 03:46:01;;;;;;;126.10;58.60;;;8.10;99.90;;;;;;6156384;23;20017;-84
2023/04/16 03:48:26;;;;;;;113.05;55.20;;;8.10;99.90;;;;;;6129693;23;20048;-84
2023/04/16 03:50:52;;;;;;;117.28;54.92;;;8.10;99.90;;;;;;6129742;23;20041;-84
2023/04/16 03:53:17;;;;;;;117.47;54.85;;;8.20;99.90;;;;;;6105525;23;20344;-84
2023/04/16 03:55:43;;;;;;;122.28;55.72;;;8.20;99.90;;;;;;6125462;23;20154;-84
2023/04/16 03:58:09;;;;;;;124.68;55.78;;;8.10;99.90;;;;;;6127157;23;20044;-84
2023/04/16 04:00:35;;;;;;;132.57;55.10;;;8.10;99.90;;;;;;6125685;23;20085;-83
2023/04/16 04:03:00;;;;;;;117.15;53.42;;;8.10;99.90;;;;;;6127043;23;20018;-84
2023/04/16 04:05:26;;;;;;;119.40;54.00;;;8.10;99.90;;;;;;6127017;23;20021;-84
2023/04/16 04:07:52;;;;;;;105.72;51.22;;;8.10;99.90;;;;;;6125495;23;20021;-85
2023/04/16 04:10:17;;;;;;;117.78;55.25;;;8.10;99.90;;;;;;6125524;23;20021;-84
2023/04/16 04:12:43;;;;;;;128.70;55.28;;;8.10;99.90;;;;;;6102081;23;20025;-84
2023/04/16 04:15:09;;;;;;;134.73;54.20;;;8.10;99.90;;;;;;6125875;23;20025;-84
2023/04/16 04:17:35;;;;;;;149.88;56.63;;;8.10;99.90;;;;;;6124494;23;20014;-84
2023/04/16 04:20:00;;;;;;;134.30;53.92;;;8.10;99.90;;;;;;6127818;23;20070;-85
2023/04/16 04:22:26;;;;;;;144.48;57.28;;;8.10;99.90;;;;;;6127179;23;20445;-85
2023/04/16 04:24:51;;;;;;;135.55;53.67;;;8.30;99.90;;;;;;6125637;23;20013;-85
2023/04/16 04:27:17;;;;;;;148.45;57.10;;;8.10;99.90;;;;;;6126529;23;20046;-84
2023/04/16 04:29:42;;;;;;;115.32;53.13;;;8.10;99.90;;;;;;6125157;23;20092;-85
2023/04/16 04:32:08;;;;;;;146.65;56.13;;;8.20;99.90;;;;;;6125911;23;20093;-85
2023/04/16 04:34:34;;;;;;;139.55;54.78;;;8.10;99.90;;;;;;6125391;23;20018;-84
2023/04/16 04:36:59;;;;;;;120.43;49.85;;;8.20;99.90;;;;;;6126243;23;20037;-84
2023/04/16 04:39:26;;;;;;;128.05;54.72;;;8.10;99.90;;;;;;6127053;23;20081;-83
2023/04/16 04:41:51;;;;;;;142.48;54.67;;;8.10;99.90;;;;;;6124714;23;20073;-83
2023/04/16 04:44:17;;;;;;;150.63;57.85;;;8.10;99.90;;;;;;6101068;23;20013;-85
2023/04/16 04:46:42;;;;;;;123.93;52.55;;;8.10;99.90;;;;;;6124153;23;20022;-84
2023/04/16 04:49:08;;;;;;;146.18;55.38;;;8.20;99.90;;;;;;6125225;23;20014;-85
2023/04/16 04:51:34;;;;;;;121.38;50.90;;;8.10;99.90;;;;;;6125287;23;20464;-84
2023/04/16 04:53:59;;;;;;;132.15;55.08;;;8.10;99.90;;;;;;6127026;23;20014;-85
2023/04/16 04:56:25;;;;;;;131.52;56.58;;;8.10;99.90;;;;;;6106917;23;20017;-84
2023/04/16 04:58:51;;;;;;;133.82;56.17;;;8.10;99.90;;;;;;6106731;23;20345;-84
2023/04/16 05:01:17;;;;;;;127.20;54.70;;;8.10;99.90;;;;;;6130077;23;20013;-84
2023/04/16 05:03:43;;;;;;;140.60;52.97;;;8.10;99.90;;;;;;6157337;23;20037;-85
2023/04/16 05:06:08;;;;;;;125.72;53.00;;;8.10;99.90;;;;;;6130172;23;20049;-85
2023/04/16 05:08:34;;;;;;;138.93;56.63;;;8.30;99.90;;;;;;6155213;23;20057;-84
2023/04/16 05:11:00;;;;;;;124.85;50.78;;;8.10;99.90;;;;;;6103825;23;20020;-84
2023/04/16 05:13:26;;;;;;;106.80;50.13;;;8.10;99.90;;;;;;6129019;23;20040;-83
2023/04/16 05:15:51;;;;;;;124.15;52.42;;;8.20;99.90;;;;;;6154731;23;20021;-84
2023/04/16 05:18:17;;;;;;;127.47;52.10;;;8.20;99.90;;;;;;6104542;23;20491;-84
2023/04/16 05:20:42;;;;;;;116.88;51.80;;;8.20;99.90;;;;;;6129274;23;20026;-85
2023/04/16 05:23:08;;;;;;;119.07;50.70;;;8.20;99.90;;;;;;6102259;23;20025;-85
2023/04/16 05:25:33;;;;;;;106.90;48.10;;;8.20;99.90;;;;;;6102678;23;20458;-85
2023/04/16 05:27:59;;;;;;;89.78;45.00;;;8.20;99.90;;;;;;6153269;23;20098;-84
2023/04/16 05:30:25;;;;;;;94.32;45.67;;;8.30;99.90;;;;;;6152533;23;20437;-85
2023/04/16 05:32:50;;;;;;;101.25;46.22;;;8.30;99.90;;;;;;6153447;23;20028;-85
2023/04/16 05:35:16;;;;;;;100.50;46.75;;;8.30;99.90;;;;;;6127156;23;20060;-85
2023/04/16 05:37:41;;;;;;;96.13;43.75;;;8.30;99.90;;;;;;6127137;23;20013;-84
2023/04/16 05:40:08;;;;;;;100.60;44.40;;;8.30;99.90;;;;;;6154214;23;20337;-84
2023/04/16 05:42:33;;;;;;;102.00;46.00;;;8.30;99.90;;;;;;6153396;23;20013;-84
2023/04/16 05:45:01;;;;;;;119.03;46.17;;;8.30;99.90;;;;;;6153086;23;20020;-84
2023/04/16 05:47:27;;;;;;;105.43;46.00;;;8.40;99.90;;;;;;6153410;23;20021;-84
2023/04/16 05:49:52;;;;;;;111.65;48.22;;;8.40;99.90;;;;;;6127731;23;20013;-84
2023/04/16 05:52:18;;;;;;;125.32;49.38;;;8.40;99.90;;;;;;6127767;23;20015;-84
2023/04/16 05:54:44;;;;;;;113.35;50.47;;;8.40;99.90;;;;;;6121849;23;20018;-85
2023/04/16 05:57:09;;;;;;;102.85;47.75;;;8.40;99.90;;;;;;6121836;23;20448;-84
2023/04/16 05:59:35;;;;;;;111.50;49.70;;;8.40;99.90;;;;;;6096654;23;20010;-83
2023/04/16 06:02:01;;;;;;;104.18;48.25;;;8.40;99.90;;;;;;6121980;23;20025;-85
2023/04/16 06:04:26;;;;;;;106.93;49.17;;;8.40;99.90;;;;;;6124072;23;20010;-85
2023/04/16 06:06:52;;;;;;;98.47;46.03;;;8.50;99.90;;;;;;6097356;23;20150;-84
2023/04/16 06:09:18;;;;;;;97.93;46.03;;;8.90;99.90;;;;;;6123702;23;20037;-85
2023/04/16 06:11:43;;;;;;;97.18;46.42;;;9.00;99.90;;;;;;6121807;23;20071;-85
2023/04/16 06:14:09;;;;;;;93.47;44.22;;;8.50;99.90;;;;;;6097104;23;20014;-85
2023/04/16 06:16:35;;;;;;;84.25;41.55;;;8.50;99.90;;;;;;6121745;23;20014;-85
2023/04/16 06:19:00;;;;;;;76.68;40.38;;;8.50;99.90;;;;;;6122008;23;20473;-85
2023/04/16 06:21:27;;;;;;;74.22;42.00;;;8.60;99.90;;;;;;6097529;23;20013;-84
2023/04/16 06:23:54;;;;;;;73.30;41.35;;;8.50;99.90;;;;;;6122881;23;20033;-85
2023/04/16 06:26:30;;;;;;;78.15;40.90;;;8.60;99.90;;;;;;6122340;23;20013;-86
2023/04/16 06:28:58;;;;;;;82.32;40.38;;;8.60;99.90;;;;;;6121457;23;20021;-86
2023/04/16 06:31:24;;;;;;;77.50;42.20;;;8.60;99.90;;;;;;6097823;23;20014;-86
2023/04/16 06:33:52;;;;;;;80.57;38.20;;;8.60;99.90;;;;;;6124101;23;20060;-87
2023/04/16 06:36:18;;;;;;;81.28;38.65;;;8.60;99.90;;;;;;6122393;23;20505;-84
2023/04/16 06:38:43;;;;;;;82.20;41.20;;;8.90;99.90;;;;;;6123698;23;20097;-86
2023/04/16 06:41:09;;;;;;;73.05;38.90;;;8.80;99.90;;;;;;6123149;23;20021;-87
2023/04/16 06:43:35;;;;;;;66.78;37.60;;;8.80;99.90;;;;;;6121557;23;20446;-86
2023/04/16 06:46:00;;;;;;;80.38;39.97;;;8.80;99.90;;;;;;6124027;23;20017;-87
2023/04/16 06:48:26;;;;;;;79.30;39.80;;;8.80;99.90;;;;;;6123344;23;20101;-86
2023/04/16 06:50:52;;;;;;;71.72;37.30;;;8.80;99.90;;;;;;6097685;23;20073;-87
2023/04/16 06:53:17;;;;;;;65.38;37.38;;;8.80;99.90;;;;;;6122070;23;20037;-87
2023/04/16 06:55:43;;;;;;;62.60;37.20;;;8.80;99.90;;;;;;6121628;23;20345;-84
2023/04/16 06:58:08;;;;;;;70.38;37.95;;;9.20;99.90;;;;;;6123311;23;20010;-84
2023/04/16 07:00:34;;;;;;;63.10;35.83;;;8.80;99.90;;;;;;6122255;23;20069;-84
2023/04/16 07:03:00;;;;;;;72.28;37.33;;;8.80;99.90;;;;;;6121837;23;20037;-84
2023/04/16 07:05:26;;;;;;;62.95;36.75;;;9.00;99.90;;;;;;6123749;23;20010;-84
2023/04/16 07:07:51;;;;;;;56.20;35.13;;;8.90;99.90;;;;;;6123498;23;20126;-85
2023/04/16 07:10:17;;;;;;;57.58;35.17;;;9.00;99.90;;;;;;6123946;23;20018;-84
2023/04/16 07:12:42;;;;;;;64.15;34.72;;;9.10;99.90;;;;;;6123101;23;20022;-84
2023/04/16 07:15:09;;;;;;;60.22;35.22;;;9.10;99.90;;;;;;6099700;23;20023;-85
2023/04/16 07:17:34;;;;;;;52.15;33.35;;;9.20;99.90;;;;;;6125462;23;20025;-85
2023/04/16 07:20:00;;;;;;;58.60;33.40;;;9.20;99.90;;;;;;6098743;23;20010;-85
2023/04/16 07:22:25;;;;;;;58.33;32.63;;;9.20;99.90;;;;;;6099600;23;20010;-85
2023/04/16 07:24:51;;;;;;;62.30;34.35;;;9.30;99.90;;;;;;6126170;23;20017;-85
2023/04/16 07:27:17;;;;;;;62.35;33.47;;;9.30;99.90;;;;;;6124033;23;20425;-85
2023/04/16 07:29:44;;;;;;;60.17;34.05;;;9.40;99.90;;;;;;6124925;23;20049;-85
2023/04/16 07:32:11;;;;;;;57.78;31.23;;;9.50;99.90;;;;;;6124344;23;20118;-85
2023/04/16 07:34:36;;;;;;;56.55;30.88;;;9.70;99.90;;;;;;6123847;23;20453;-85
2023/04/16 07:37:02;;;;;;;72.78;32.38;;;9.70;99.90;;;;;;6099397;23;20018;-85
2023/04/16 07:39:27;;;;;;;64.88;30.65;;;9.80;99.90;;;;;;6123912;23;20017;-86
2023/04/16 07:41:53;;;;;;;62.25;29.63;;;9.80;99.90;;;;;;6098593;23;20175;-85
2023/04/16 07:44:19;;;;;;;54.70;30.63;;;10.00;99.90;;;;;;6125671;23;20045;-85
2023/04/16 07:46:44;;;;;;;56.05;28.02;;;10.10;99.90;;;;;;6123577;23;20082;-85
2023/04/16 07:49:10;;;;;;;57.63;27.83;;;10.20;99.90;;;;;;6099251;23;20340;-85
2023/04/16 07:51:36;;;;;;;51.78;27.60;;;10.20;99.90;;;;;;6125309;23;20105;-85
2023/04/16 07:54:01;;;;;;;65.07;29.85;;;10.20;99.90;;;;;;6126516;23;20006;-85
2023/04/16 07:56:27;;;;;;;53.58;27.52;;;10.40;99.90;;;;;;6103588;23;20017;-85
2023/04/16 07:58:52;;;;;;;52.90;26.38;;;10.30;99.90;;;;;;6154748;23;20096;-85
2023/04/16 08:01:18;;;;;;;45.30;24.63;;;10.40;99.90;;;;;;6104026;23;20018;-85
2023/04/16 08:03:44;;;;;;;48.22;25.83;;;10.40;99.90;;;;;;6128173;23;20062;-86
2023/04/16 08:06:09;;;;;;;48.75;25.30;;;10.50;99.90;;;;;;6154285;23;20019;-85
2023/04/16 08:08:35;;;;;;;43.33;24.02;;;10.50;99.90;;;;;;6154808;23;20025;-85
2023/04/16 08:11:01;;;;;;;54.17;25.05;;;10.60;99.90;;;;;;6127905;23;20428;-85
2023/04/16 08:13:26;;;;;;;57.97;25.30;;;10.70;99.90;;;;;;6154694;23;20102;-85
2023/04/16 08:15:52;;;;;;;43.13;24.80;;;10.80;99.90;;;;;;6129638;23;20013;-85
2023/04/16 08:18:18;;;;;;;54.42;24.20;;;10.80;99.90;;;;;;6155577;23;20014;-85
2023/04/16 08:20:47;;;;;;;49.67;23.98;;;11.00;99.90;;;;;;6154554;23;20102;-85
2023/04/16 08:23:12;;;;;;;54.88;24.90;;;11.10;99.90;;;;;;6126408;23;20356;-85
2023/04/16 08:25:38;;;;;;;53.33;24.98;;;11.30;99.90;;;;;;6127364;23;20123;-85
2023/04/16 08:28:04;;;;;;;48.47;23.08;;;11.30;99.90;;;;;;6127678;23;20053;-85
2023/04/16 08:30:32;;;;;;;50.38;23.70;;;11.50;99.90;;;;;;6154512;23;20465;-85
2023/04/16 08:32:58;;;;;;;47.88;22.48;;;11.60;99.90;;;;;;6128214;23;20089;-84
2023/04/16 08:35:24;;;;;;;45.30;22.42;;;11.80;99.90;;;;;;6127702;23;20126;-85
2023/04/16 08:37:49;;;;;;;53.08;23.08;;;12.00;99.90;;;;;;6127994;23;20084;-85
2023/04/16 08:40:16;;;;;;;47.92;22.52;;;12.00;99.90;;;;;;6102626;23;20387;-85
2023/04/16 08:42:51;;;;;;;44.80;21.48;;;12.10;99.90;;;;;;6127704;23;20013;-86
2023/04/16 08:45:17;;;;;;;42.92;21.48;;;12.20;99.90;;;;;;6128489;23;20032;-85
2023/04/16 08:47:50;;;;;;;47.05;21.00;;;12.40;99.90;;;;;;6128066;23;20032;-86
2023/04/16 08:50:21;;;;;;;45.08;20.73;;;12.50;99.90;;;;;;6103370;23;20107;-85
2023/04/16 08:52:52;;;;;;;39.78;20.30;;;12.60;99.90;;;;;;6102991;23;20027;-85
2023/04/16 08:55:25;;;;;;;47.97;22.00;;;12.50;99.90;;;;;;6122050;23;20053;-85
2023/04/16 08:57:57;;;;;;;38.25;20.98;;;12.70;99.90;;;;;;6123074;23;20099;-85
2023/04/16 09:00:23;;;;;;;49.17;21.67;;;12.90;99.90;;;;;;6123558;23;20054;-86
2023/04/16 09:02:50;;;;;;;40.42;20.20;;;13.10;99.90;;;;;;6123459;23;20021;-85
2023/04/16 09:05:16;;;;;;;39.05;19.40;;;13.30;99.90;;;;;;6098526;23;20010;-85
2023/04/16 09:07:45;;;;;;;44.90;19.77;;;13.50;99.90;;;;;;6124102;23;20390;-84
2023/04/16 09:10:11;;;;;;;37.55;19.75;;;13.60;99.90;;;;;;6124728;23;20010;-85
2023/04/16 09:12:39;;;;;;;44.22;20.15;;;13.80;99.90;;;;;;6124161;23;20010;-84
2023/04/16 09:15:05;;;;;;;32.38;18.75;;;14.00;99.90;;;;;;6097612;23;20069;-85
2023/04/16 09:17:31;;;;;;;34.97;19.48;;;13.80;99.90;;;;;;6097377;23;20072;-86
2023/04/16 09:19:56;;;;;;;35.42;18.00;;;13.70;99.90;;;;;;6122477;23;20013;-85
2023/04/16 09:22:22;;;;;;;37.08;18.60;;;13.70;99.90;;;;;;6097111;23;20154;-85
2023/04/16 09:24:47;;;;;;;34.90;18.45;;;13.90;99.90;;;;;;6122658;23;20050;-85
2023/04/16 09:27:13;;;;;;;37.40;17.80;;;14.10;99.90;;;;;;6122353;23;20345;-86
2023/04/16 09:29:40;;;;;;;36.60;18.80;;;14.10;99.90;;;;;;6123501;23;20036;-85
2023/04/16 09:32:11;;;;;;;33.75;18.25;;;14.30;99.90;;;;;;6124461;23;20073;-84
2023/04/16 09:34:53;;;;;;;28.40;16.80;;;14.30;99.90;;;;;;6123585;23;20013;-85
2023/04/16 09:37:19;;;;;;;32.33;17.42;;;14.40;99.90;;;;;;6097407;23;20018;-81
2023/04/16 09:39:54;;;;;;;27.63;16.23;;;14.40;99.90;;;;;;6122446;23;20021;-83
2023/04/16 09:42:28;;;;;;;31.30;16.45;;;14.60;99.90;;;;;;6125520;23;20018;-82
2023/04/16 09:44:54;;;;;;;30.35;16.20;;;14.70;99.90;;;;;;6099091;23;20010;-83
2023/04/16 09:47:21;;;;;;;32.25;16.30;;;15.00;99.90;;;;;;6122782;23;20014;-83
2023/04/16 09:49:47;;;;;;;32.33;16.77;;;15.10;99.90;;;;;;6122741;23;20092;-83
2023/04/16 09:52:14;;;;;;;21.42;15.35;;;15.30;99.90;;;;;;6122376;23;20025;-83
2023/04/16 09:54:51;;;;;;;22.60;15.23;;;15.00;99.90;;;;;;6097743;23;20010;-83
2023/04/16 09:57:21;;;;;;;24.67;15.00;;;14.80;99.90;;;;;;6124562;23;20094;-82
2023/04/16 09:59:51;;;;;;;21.42;15.15;;;14.70;99.90;;;;;;6123220;23;20086;-83
2023/04/16 10:02:17;;;;;;;21.45;15.57;;;14.40;99.90;;;;;;6123285;23;20366;-83
2023/04/16 10:04:50;;;;;;;31.05;16.73;;;14.50;99.90;;;;;;6121982;23;20094;-83
2023/04/16 10:07:16;;;;;;;25.83;16.13;;;14.60;99.90;;;;;;6097196;23;20021;-83
2023/04/16 10:09:42;;;;;;;22.55;15.20;;;14.50;99.90;;;;;;6121890;23;20014;-83
2023/04/16 10:12:08;;;;;;;21.77;14.70;;;14.50;99.90;;;;;;6122473;23;20081;-83
2023/04/16 10:14:34;;;;;;;27.38;16.30;;;14.40;99.90;;;;;;6097747;23;20056;-84
2023/04/16 10:17:01;;;;;;;23.85;15.88;;;14.50;99.90;;;;;;6121913;23;20393;-83
2023/04/16 10:19:27;;;;;;;27.58;16.00;;;14.50;99.90;;;;;;6123074;23;20153;-82
2023/04/16 10:21:54;;;;;;;27.27;15.77;;;14.70;99.90;;;;;;6123457;23;20048;-83
2023/04/16 10:24:21;;;;;;;26.73;15.65;;;14.90;99.90;;;;;;6097688;23;20096;-82
2023/04/16 10:26:50;;;;;;;22.80;14.80;;;15.20;99.90;;;;;;6122045;23;20021;-83
2023/04/16 10:29:16;;;;;;;32.67;16.40;;;15.60;99.90;;;;;;6097916;23;20010;-84
2023/04/16 10:31:42;;;;;;;31.15;15.85;;;15.70;99.90;;;;;;6122383;23;20117;-83
2023/04/16 10:34:08;;;;;;;33.58;15.68;;;15.70;99.90;;;;;;6122493;23;20161;-83
2023/04/16 10:36:38;;;;;;;24.77;14.75;;;15.80;99.90;;;;;;6121539;23;20437;-82
2023/04/16 10:39:12;;;;;;;22.02;14.90;;;16.00;99.90;;;;;;6121890;23;20025;-84
2023/04/16 10:41:38;;;;;;;20.27;14.73;;;15.90;99.90;;;;;;6122972;23;20014;-82
2023/04/16 10:44:05;;;;;;;26.52;14.52;;;15.90;99.90;;;;;;6122505;23;20010;-82
2023/04/16 10:46:32;;;;;;;26.70;14.52;;;15.80;99.90;;;;;;6101349;23;20021;-83
2023/04/16 10:49:11;;;;;;;23.75;14.38;;;15.80;99.90;;;;;;6125713;23;20330;-83
2023/04/16 10:51:37;;;;;;;25.05;14.73;;;15.70;99.90;;;;;;6125598;23;20014;-84
2023/04/16 10:54:11;;;;;;;24.67;13.93;;;15.80;99.90;;;;;;6102903;23;20010;-82
2023/04/16 10:56:37;;;;;;;23.52;14.55;;;15.80;99.90;;;;;;6131374;23;20013;-83
2023/04/16 10:59:09;;;;;;;22.60;14.68;;;15.90;99.90;;;;;;6130623;23;20483;-84
2023/04/16 11:01:39;;;;;;;20.45;13.52;;;15.70;99.90;;;;;;6131226;23;20041;-84
2023/04/16 11:04:18;;;;;;;22.75;14.48;;;15.60;99.90;;;;;;6156527;23;20048;-84
2023/04/16 11:07:04;;;;;;;24.25;15.23;;;15.70;99.90;;;;;;6131157;23;20014;-83
2023/04/16 11:10:01;;;;;;;23.10;14.52;;;15.80;99.90;;;;;;6106676;23;20025;-84
2023/04/16 11:12:43;;;;;;;24.77;14.55;;;16.00;99.90;;;;;;6095089;23;20096;-83
2023/04/16 11:15:11;;;;;;;26.20;15.07;;;16.00;99.90;;;;;;6106241;23;20064;-83
2023/04/16 11:17:51;;;;;;;22.30;14.30;;;16.00;99.90;;;;;;6130810;23;20024;-83
2023/04/16 11:20:22;;;;;;;29.08;14.07;;;16.10;99.90;;;;;;6129854;23;20010;-83
2023/04/16 11:22:50;;;;;;;21.55;13.60;;;15.90;99.90;;;;;;6157076;23;20120;-83
2023/04/16 11:25:21;;;;;;;26.17;15.25;;;15.70;99.90;;;;;;6105982;23;20232;-81
2023/04/16 11:27:47;;;;;;;26.33;15.43;;;15.70;99.90;;;;;;6156492;23;20145;-82
2023/04/16 11:30:13;;;;;;;20.77;13.57;;;15.70;99.90;;;;;;6130035;23;20112;-83
2023/04/16 11:32:39;;;;;;;26.50;15.32;;;15.70;99.90;;;;;;6129807;23;20010;-82
2023/04/16 11:35:16;;;;;;;24.33;15.07;;;15.70;99.90;;;;;;6131050;23;20190;-82
2023/04/16 11:37:42;;;;;;;28.45;15.63;;;15.60;99.90;;;;;;6130404;23;20070;-83
2023/04/16 11:40:09;;;;;;;25.80;14.73;;;15.50;99.90;;;;;;6157289;23;20041;-84
2023/04/16 11:42:41;;;;;;;31.45;16.00;;;15.80;99.90;;;;;;6107207;23;20041;-91
2023/04/16 11:45:08;;;;;;;29.48;15.80;;;15.90;99.90;;;;;;6106341;23;20041;-81
2023/04/16 11:47:44;;;;;;;24.95;14.05;;;15.80;99.90;;;;;;6129163;23;20149;-80
2023/04/16 11:50:24;;;;;;;28.27;14.65;;;16.10;99.90;;;;;;6129553;23;20056;-80
2023/04/16 11:52:52;;;;;;;28.02;14.32;;;16.00;99.90;;;;;;6105152;23;20503;-80
2023/04/16 11:55:18;;;;;;;25.25;13.57;;;16.20;99.90;;;;;;6124617;23;20040;-80
2023/04/16 11:57:44;;;;;;;27.25;15.48;;;16.30;99.90;;;;;;6097898;23;20017;-81
2023/04/16 12:00:14;;;;;;;22.40;14.38;;;16.20;99.90;;;;;;6098607;23;20016;-81
2023/04/16 12:02:43;;;;;;;22.38;14.30;;;16.30;99.90;;;;;;6124287;23;20010;-80
2023/04/16 12:05:38;;;;;;;28.63;16.17;;;16.20;99.90;;;;;;6123178;23;20014;-80
2023/04/16 12:08:09;;;;;;;29.52;16.48;;;16.10;99.90;;;;;;6098352;23;20050;-81
2023/04/16 12:10:36;;;;;;;28.92;15.77;;;16.10;99.90;;;;;;6098332;23;20410;-81
2023/04/16 12:13:16;;;;;;;28.13;15.50;;;16.20;99.90;;;;;;6122823;23;20018;-80
2023/04/16 12:15:52;;;;;;;26.58;14.95;;;16.10;99.90;;;;;;6098583;23;20037;-80
2023/04/16 12:18:20;;;;;;;27.58;15.50;;;16.10;99.90;;;;;;6122235;23;20021;-80
2023/04/16 12:20:46;;;;;;;24.42;16.98;;;15.70;99.90;;;;;;6123076;23;20248;-81
2023/04/16 12:23:32;;;;;;;24.55;16.20;;;15.60;99.90;;;;;;6098407;23;20401;-79
2023/04/16 12:26:01;;;;;;;27.95;16.05;;;15.60;99.90;;;;;;6124360;23;20010;-80
2023/04/16 12:28:36;;;;;;;23.38;15.15;;;15.50;99.90;;;;;;6122610;23;20024;-80